sensor_id;sensor_type;location;lat;lon;timestamp;P1;durP1;ratioP1;P2;durP2;ratioP2
76459;SDS011;65299;46.084;18.762;2024-02-28T00:01:18;22.83;;;9.52;;
76459;SDS011;65299;46.084;18.762;2024-02-28T00:04:19;17.90;;;8.93;;
76459;SDS011;65299;46.084;18.762;2024-02-28T00:07:19;20.37;;;9.43;;
76459;SDS011;65299;46.084;18.762;2024-02-28T00:10:20;20.73;;;9.67;;
76459;SDS011;65299;46.084;18.762;2024-02-28T00:13:21;20.13;;;9.30;;
76459;SDS011;65299;46.084;18.762;2024-02-28T00:16:23;19.67;;;8.93;;
76459;SDS011;65299;46.084;18.762;2024-02-28T00:19:23;20.17;;;9.43;;
76459;SDS011;65299;46.084;18.762;2024-02-28T00:22:25;17.40;;;9.23;;
76459;SDS011;65299;46.084;18.762;2024-02-28T00:25:25;17.13;;;8.77;;
76459;SDS011;65299;46.084;18.762;2024-02-28T00:28:26;20.23;;;9.27;;
76459;SDS011;65299;46.084;18.762;2024-02-28T00:31:26;16.83;;;9.33;;
76459;SDS011;65299;46.084;18.762;2024-02-28T00:34:26;18.90;;;8.93;;
76459;SDS011;65299;46.084;18.762;2024-02-28T00:37:27;20.83;;;8.63;;
76459;SDS011;65299;46.084;18.762;2024-02-28T00:40:27;19.70;;;9.57;;
76459;SDS011;65299;46.084;18.762;2024-02-28T00:43:28;18.13;;;8.75;;
76459;SDS011;65299;46.084;18.762;2024-02-28T00:46:29;16.87;;;8.57;;
76459;SDS011;65299;46.084;18.762;2024-02-28T00:49:29;18.00;;;8.23;;
76459;SDS011;65299;46.084;18.762;2024-02-28T00:52:29;16.37;;;8.20;;
76459;SDS011;65299;46.084;18.762;2024-02-28T00:55:32;18.48;;;8.30;;
76459;SDS011;65299;46.084;18.762;2024-02-28T00:58:32;19.80;;;7.97;;
76459;SDS011;65299;46.084;18.762;2024-02-28T01:01:33;19.63;;;8.52;;
76459;SDS011;65299;46.084;18.762;2024-02-28T01:04:33;20.77;;;9.30;;
76459;SDS011;65299;46.084;18.762;2024-02-28T01:07:33;20.10;;;8.63;;
76459;SDS011;65299;46.084;18.762;2024-02-28T01:10:34;19.83;;;8.23;;
76459;SDS011;65299;46.084;18.762;2024-02-28T01:13:34;17.00;;;8.73;;
76459;SDS011;65299;46.084;18.762;2024-02-28T01:16:34;16.92;;;8.50;;
76459;SDS011;65299;46.084;18.762;2024-02-28T01:19:35;16.53;;;8.30;;
76459;SDS011;65299;46.084;18.762;2024-02-28T01:22:35;17.97;;;9.03;;
76459;SDS011;65299;46.084;18.762;2024-02-28T01:25:36;20.30;;;8.50;;
76459;SDS011;65299;46.084;18.762;2024-02-28T01:28:36;19.33;;;8.43;;
76459;SDS011;65299;46.084;18.762;2024-02-28T01:31:36;17.63;;;8.27;;
76459;SDS011;65299;46.084;18.762;2024-02-28T01:34:37;15.40;;;8.40;;
76459;SDS011;65299;46.084;18.762;2024-02-28T01:37:37;21.03;;;8.90;;
76459;SDS011;65299;46.084;18.762;2024-02-28T01:40:38;18.40;;;9.30;;
76459;SDS011;65299;46.084;18.762;2024-02-28T01:43:38;20.77;;;8.40;;
76459;SDS011;65299;46.084;18.762;2024-02-28T01:46:38;18.53;;;8.17;;
76459;SDS011;65299;46.084;18.762;2024-02-28T01:49:39;18.67;;;8.57;;
76459;SDS011;65299;46.084;18.762;2024-02-28T01:52:40;18.20;;;8.90;;
76459;SDS011;65299;46.084;18.762;2024-02-28T01:55:41;28.10;;;12.57;;
76459;SDS011;65299;46.084;18.762;2024-02-28T01:58:46;22.50;;;10.23;;
76459;SDS011;65299;46.084;18.762;2024-02-28T02:01:47;20.52;;;10.07;;
76459;SDS011;65299;46.084;18.762;2024-02-28T02:04:48;24.97;;;10.43;;
76459;SDS011;65299;46.084;18.762;2024-02-28T02:07:48;25.93;;;11.27;;
76459;SDS011;65299;46.084;18.762;2024-02-28T02:10:49;21.65;;;10.02;;
76459;SDS011;65299;46.084;18.762;2024-02-28T02:13:50;30.10;;;12.47;;
76459;SDS011;65299;46.084;18.762;2024-02-28T02:16:51;27.35;;;12.27;;
76459;SDS011;65299;46.084;18.762;2024-02-28T02:19:51;29.40;;;11.70;;
76459;SDS011;65299;46.084;18.762;2024-02-28T02:22:53;27.60;;;12.27;;
76459;SDS011;65299;46.084;18.762;2024-02-28T02:25:53;34.73;;;12.40;;
76459;SDS011;65299;46.084;18.762;2024-02-28T02:28:54;28.90;;;10.82;;
76459;SDS011;65299;46.084;18.762;2024-02-28T02:31:54;29.83;;;12.90;;
76459;SDS011;65299;46.084;18.762;2024-02-28T02:34:54;30.23;;;12.33;;
76459;SDS011;65299;46.084;18.762;2024-02-28T02:37:55;30.83;;;12.77;;
76459;SDS011;65299;46.084;18.762;2024-02-28T02:40:56;30.80;;;11.77;;
76459;SDS011;65299;46.084;18.762;2024-02-28T02:43:56;28.40;;;11.90;;
76459;SDS011;65299;46.084;18.762;2024-02-28T02:46:58;23.93;;;10.53;;
76459;SDS011;65299;46.084;18.762;2024-02-28T02:49:58;22.88;;;10.88;;
76459;SDS011;65299;46.084;18.762;2024-02-28T02:52:58;30.83;;;12.10;;
76459;SDS011;65299;46.084;18.762;2024-02-28T02:55:59;27.67;;;10.40;;
76459;SDS011;65299;46.084;18.762;2024-02-28T02:58:59;24.47;;;10.80;;
76459;SDS011;65299;46.084;18.762;2024-02-28T03:01:59;32.23;;;11.70;;
76459;SDS011;65299;46.084;18.762;2024-02-28T03:05:00;31.23;;;12.70;;
76459;SDS011;65299;46.084;18.762;2024-02-28T03:08:00;34.80;;;15.80;;
76459;SDS011;65299;46.084;18.762;2024-02-28T03:11:01;35.33;;;15.10;;
76459;SDS011;65299;46.084;18.762;2024-02-28T03:14:04;42.55;;;19.50;;
76459;SDS011;65299;46.084;18.762;2024-02-28T03:17:04;33.80;;;15.83;;
76459;SDS011;65299;46.084;18.762;2024-02-28T03:20:05;33.43;;;14.50;;
76459;SDS011;65299;46.084;18.762;2024-02-28T03:23:07;28.48;;;12.35;;
76459;SDS011;65299;46.084;18.762;2024-02-28T03:26:08;20.93;;;10.37;;
76459;SDS011;65299;46.084;18.762;2024-02-28T03:29:08;25.20;;;10.33;;
76459;SDS011;65299;46.084;18.762;2024-02-28T03:32:08;21.45;;;9.63;;
76459;SDS011;65299;46.084;18.762;2024-02-28T03:35:09;20.87;;;9.77;;
76459;SDS011;65299;46.084;18.762;2024-02-28T03:38:09;25.07;;;10.10;;
76459;SDS011;65299;46.084;18.762;2024-02-28T03:41:10;27.20;;;10.50;;
76459;SDS011;65299;46.084;18.762;2024-02-28T03:44:10;22.25;;;9.27;;
76459;SDS011;65299;46.084;18.762;2024-02-28T03:47:11;21.00;;;10.33;;
76459;SDS011;65299;46.084;18.762;2024-02-28T03:50:11;19.07;;;9.30;;
76459;SDS011;65299;46.084;18.762;2024-02-28T03:53:11;19.27;;;9.43;;
76459;SDS011;65299;46.084;18.762;2024-02-28T03:56:12;29.33;;;12.60;;
76459;SDS011;65299;46.084;18.762;2024-02-28T03:59:12;67.43;;;31.87;;
76459;SDS011;65299;46.084;18.762;2024-02-28T04:02:13;63.37;;;32.27;;
76459;SDS011;65299;46.084;18.762;2024-02-28T04:05:13;63.83;;;33.72;;
76459;SDS011;65299;46.084;18.762;2024-02-28T04:08:14;63.20;;;32.70;;
76459;SDS011;65299;46.084;18.762;2024-02-28T04:11:14;52.20;;;27.20;;
76459;SDS011;65299;46.084;18.762;2024-02-28T04:14:14;55.50;;;28.83;;
76459;SDS011;65299;46.084;18.762;2024-02-28T04:17:15;53.73;;;30.90;;
76459;SDS011;65299;46.084;18.762;2024-02-28T04:20:15;41.07;;;23.27;;
76459;SDS011;65299;46.084;18.762;2024-02-28T04:23:16;39.03;;;24.00;;
76459;SDS011;65299;46.084;18.762;2024-02-28T04:26:17;48.30;;;24.23;;
76459;SDS011;65299;46.084;18.762;2024-02-28T04:29:17;52.57;;;25.83;;
76459;SDS011;65299;46.084;18.762;2024-02-28T04:32:18;20.38;;;10.00;;
76459;SDS011;65299;46.084;18.762;2024-02-28T04:35:18;20.37;;;9.93;;
76459;SDS011;65299;46.084;18.762;2024-02-28T04:38:18;40.27;;;20.40;;
76459;SDS011;65299;46.084;18.762;2024-02-28T04:41:19;46.43;;;23.37;;
76459;SDS011;65299;46.084;18.762;2024-02-28T04:44:19;38.23;;;18.73;;
76459;SDS011;65299;46.084;18.762;2024-02-28T04:47:20;47.03;;;20.52;;
76459;SDS011;65299;46.084;18.762;2024-02-28T04:50:20;38.17;;;18.27;;
76459;SDS011;65299;46.084;18.762;2024-02-28T04:53:20;37.47;;;17.57;;
76459;SDS011;65299;46.084;18.762;2024-02-28T04:56:21;37.07;;;17.20;;
76459;SDS011;65299;46.084;18.762;2024-02-28T04:59:21;35.80;;;16.67;;
76459;SDS011;65299;46.084;18.762;2024-02-28T05:02:22;31.50;;;14.80;;
76459;SDS011;65299;46.084;18.762;2024-02-28T05:05:22;38.63;;;17.07;;
76459;SDS011;65299;46.084;18.762;2024-02-28T05:08:24;49.57;;;21.33;;
76459;SDS011;65299;46.084;18.762;2024-02-28T05:11:25;48.83;;;22.03;;
76459;SDS011;65299;46.084;18.762;2024-02-28T05:14:25;42.92;;;19.98;;
76459;SDS011;65299;46.084;18.762;2024-02-28T05:17:25;68.63;;;28.27;;
76459;SDS011;65299;46.084;18.762;2024-02-28T05:20:27;75.47;;;43.92;;
76459;SDS011;65299;46.084;18.762;2024-02-28T05:23:28;77.90;;;43.27;;
76459;SDS011;65299;46.084;18.762;2024-02-28T05:26:29;46.92;;;27.42;;
76459;SDS011;65299;46.084;18.762;2024-02-28T05:29:31;48.22;;;25.83;;
76459;SDS011;65299;46.084;18.762;2024-02-28T05:32:32;62.07;;;33.93;;
76459;SDS011;65299;46.084;18.762;2024-02-28T05:35:33;72.20;;;40.25;;
76459;SDS011;65299;46.084;18.762;2024-02-28T05:38:33;80.03;;;43.13;;
76459;SDS011;65299;46.084;18.762;2024-02-28T05:41:33;28.30;;;15.17;;
76459;SDS011;65299;46.084;18.762;2024-02-28T05:44:34;29.55;;;16.42;;
76459;SDS011;65299;46.084;18.762;2024-02-28T05:47:34;29.00;;;16.23;;
76459;SDS011;65299;46.084;18.762;2024-02-28T05:50:35;46.97;;;24.47;;
76459;SDS011;65299;46.084;18.762;2024-02-28T05:53:35;76.70;;;37.30;;
76459;SDS011;65299;46.084;18.762;2024-02-28T05:56:36;65.22;;;35.53;;
76459;SDS011;65299;46.084;18.762;2024-02-28T05:59:36;104.03;;;56.37;;
76459;SDS011;65299;46.084;18.762;2024-02-28T06:02:37;63.13;;;35.63;;
76459;SDS011;65299;46.084;18.762;2024-02-28T06:05:38;77.45;;;42.35;;
76459;SDS011;65299;46.084;18.762;2024-02-28T06:08:38;49.67;;;25.53;;
76459;SDS011;65299;46.084;18.762;2024-02-28T06:11:40;54.58;;;24.30;;
76459;SDS011;65299;46.084;18.762;2024-02-28T06:14:40;68.07;;;29.30;;
76459;SDS011;65299;46.084;18.762;2024-02-28T06:17:41;45.20;;;19.47;;
76459;SDS011;65299;46.084;18.762;2024-02-28T06:20:41;38.92;;;17.10;;
76459;SDS011;65299;46.084;18.762;2024-02-28T06:23:42;33.50;;;15.97;;
76459;SDS011;65299;46.084;18.762;2024-02-28T06:26:42;47.47;;;21.60;;
76459;SDS011;65299;46.084;18.762;2024-02-28T06:29:43;62.95;;;32.83;;
76459;SDS011;65299;46.084;18.762;2024-02-28T06:32:43;67.57;;;35.63;;
76459;SDS011;65299;46.084;18.762;2024-02-28T06:35:45;73.38;;;41.42;;
76459;SDS011;65299;46.084;18.762;2024-02-28T06:38:45;67.10;;;37.53;;
76459;SDS011;65299;46.084;18.762;2024-02-28T06:41:46;63.17;;;34.90;;
76459;SDS011;65299;46.084;18.762;2024-02-28T06:44:47;59.13;;;32.77;;
76459;SDS011;65299;46.084;18.762;2024-02-28T06:47:48;45.80;;;20.67;;
76459;SDS011;65299;46.084;18.762;2024-02-28T06:50:48;44.80;;;21.07;;
76459;SDS011;65299;46.084;18.762;2024-02-28T06:53:48;61.43;;;23.43;;
76459;SDS011;65299;46.084;18.762;2024-02-28T06:56:49;47.60;;;23.97;;
76459;SDS011;65299;46.084;18.762;2024-02-28T06:59:49;35.80;;;18.47;;
76459;SDS011;65299;46.084;18.762;2024-02-28T07:02:53;34.03;;;16.35;;
76459;SDS011;65299;46.084;18.762;2024-02-28T07:05:53;37.20;;;19.23;;
76459;SDS011;65299;46.084;18.762;2024-02-28T07:08:54;45.53;;;23.98;;
76459;SDS011;65299;46.084;18.762;2024-02-28T07:11:55;40.33;;;21.90;;
76459;SDS011;65299;46.084;18.762;2024-02-28T07:14:55;36.97;;;20.77;;
76459;SDS011;65299;46.084;18.762;2024-02-28T07:17:56;32.47;;;19.43;;
76459;SDS011;65299;46.084;18.762;2024-02-28T07:20:56;40.27;;;22.57;;
76459;SDS011;65299;46.084;18.762;2024-02-28T07:23:56;36.20;;;19.00;;
76459;SDS011;65299;46.084;18.762;2024-02-28T07:26:57;35.92;;;19.40;;
76459;SDS011;65299;46.084;18.762;2024-02-28T07:29:57;31.13;;;16.47;;
76459;SDS011;65299;46.084;18.762;2024-02-28T07:32:58;30.03;;;14.33;;
76459;SDS011;65299;46.084;18.762;2024-02-28T07:35:58;29.10;;;13.13;;
76459;SDS011;65299;46.084;18.762;2024-02-28T07:39:01;25.65;;;11.65;;
76459;SDS011;65299;46.084;18.762;2024-02-28T07:42:01;22.50;;;11.97;;
76459;SDS011;65299;46.084;18.762;2024-02-28T07:45:01;22.90;;;11.82;;
76459;SDS011;65299;46.084;18.762;2024-02-28T07:48:02;22.27;;;10.43;;
76459;SDS011;65299;46.084;18.762;2024-02-28T07:51:09;17.15;;;9.40;;
76459;SDS011;65299;46.084;18.762;2024-02-28T07:54:09;19.48;;;9.38;;
76459;SDS011;65299;46.084;18.762;2024-02-28T07:57:10;19.13;;;9.40;;
76459;SDS011;65299;46.084;18.762;2024-02-28T08:00:12;21.35;;;9.07;;
76459;SDS011;65299;46.084;18.762;2024-02-28T08:03:13;20.83;;;9.77;;
76459;SDS011;65299;46.084;18.762;2024-02-28T08:06:13;22.23;;;9.38;;
76459;SDS011;65299;46.084;18.762;2024-02-28T08:09:14;16.90;;;8.80;;
76459;SDS011;65299;46.084;18.762;2024-02-28T08:12:15;18.45;;;8.77;;
76459;SDS011;65299;46.084;18.762;2024-02-28T08:15:16;19.60;;;8.90;;
76459;SDS011;65299;46.084;18.762;2024-02-28T08:18:16;19.30;;;8.57;;
76459;SDS011;65299;46.084;18.762;2024-02-28T08:21:17;18.87;;;8.97;;
76459;SDS011;65299;46.084;18.762;2024-02-28T08:24:18;16.25;;;8.40;;
76459;SDS011;65299;46.084;18.762;2024-02-28T08:27:18;18.40;;;7.60;;
76459;SDS011;65299;46.084;18.762;2024-02-28T08:30:20;18.77;;;8.52;;
76459;SDS011;65299;46.084;18.762;2024-02-28T08:33:21;18.23;;;9.00;;
76459;SDS011;65299;46.084;18.762;2024-02-28T08:36:21;16.60;;;8.35;;
76459;SDS011;65299;46.084;18.762;2024-02-28T08:39:21;16.70;;;8.80;;
76459;SDS011;65299;46.084;18.762;2024-02-28T08:42:26;19.13;;;9.10;;
76459;SDS011;65299;46.084;18.762;2024-02-28T08:45:27;21.50;;;9.30;;
76459;SDS011;65299;46.084;18.762;2024-02-28T08:48:28;18.00;;;9.20;;
76459;SDS011;65299;46.084;18.762;2024-02-28T08:51:31;19.20;;;8.93;;
76459;SDS011;65299;46.084;18.762;2024-02-28T08:54:31;16.23;;;8.20;;
76459;SDS011;65299;46.084;18.762;2024-02-28T08:57:31;26.20;;;10.57;;
76459;SDS011;65299;46.084;18.762;2024-02-28T09:00:32;22.02;;;9.90;;
76459;SDS011;65299;46.084;18.762;2024-02-28T09:03:32;22.77;;;10.10;;
76459;SDS011;65299;46.084;18.762;2024-02-28T09:06:33;22.70;;;9.52;;
76459;SDS011;65299;46.084;18.762;2024-02-28T09:09:33;20.83;;;10.70;;
76459;SDS011;65299;46.084;18.762;2024-02-28T09:12:37;20.65;;;10.07;;
76459;SDS011;65299;46.084;18.762;2024-02-28T09:15:38;21.47;;;10.53;;
76459;SDS011;65299;46.084;18.762;2024-02-28T09:18:38;22.13;;;10.60;;
76459;SDS011;65299;46.084;18.762;2024-02-28T09:21:39;26.53;;;10.83;;
76459;SDS011;65299;46.084;18.762;2024-02-28T09:24:39;22.80;;;10.43;;
76459;SDS011;65299;46.084;18.762;2024-02-28T09:27:40;19.90;;;10.27;;
76459;SDS011;65299;46.084;18.762;2024-02-28T09:30:40;21.57;;;10.60;;
76459;SDS011;65299;46.084;18.762;2024-02-28T09:33:40;21.27;;;10.20;;
76459;SDS011;65299;46.084;18.762;2024-02-28T09:36:41;27.52;;;10.82;;
76459;SDS011;65299;46.084;18.762;2024-02-28T09:39:42;21.83;;;11.32;;
76459;SDS011;65299;46.084;18.762;2024-02-28T09:42:45;21.03;;;10.80;;
76459;SDS011;65299;46.084;18.762;2024-02-28T09:45:51;20.83;;;11.32;;
76459;SDS011;65299;46.084;18.762;2024-02-28T09:48:56;20.55;;;11.27;;
76459;SDS011;65299;46.084;18.762;2024-02-28T09:52:01;21.10;;;10.93;;
76459;SDS011;65299;46.084;18.762;2024-02-28T09:55:03;16.83;;;9.40;;
76459;SDS011;65299;46.084;18.762;2024-02-28T09:58:03;16.98;;;9.55;;
76459;SDS011;65299;46.084;18.762;2024-02-28T10:01:05;18.60;;;10.45;;
76459;SDS011;65299;46.084;18.762;2024-02-28T10:04:09;21.43;;;10.27;;
76459;SDS011;65299;46.084;18.762;2024-02-28T10:07:13;21.20;;;11.38;;
76459;SDS011;65299;46.084;18.762;2024-02-28T10:10:13;18.30;;;9.57;;
76459;SDS011;65299;46.084;18.762;2024-02-28T10:13:17;19.30;;;10.30;;
76459;SDS011;65299;46.084;18.762;2024-02-28T10:16:22;16.40;;;9.82;;
76459;SDS011;65299;46.084;18.762;2024-02-28T10:19:24;20.70;;;9.27;;
76459;SDS011;65299;46.084;18.762;2024-02-28T10:22:25;17.03;;;9.43;;
76459;SDS011;65299;46.084;18.762;2024-02-28T10:25:33;18.40;;;10.07;;
76459;SDS011;65299;46.084;18.762;2024-02-28T10:28:36;17.90;;;10.10;;
76459;SDS011;65299;46.084;18.762;2024-02-28T10:31:41;17.48;;;10.07;;
76459;SDS011;65299;46.084;18.762;2024-02-28T10:34:41;25.17;;;10.10;;
76459;SDS011;65299;46.084;18.762;2024-02-28T10:37:42;20.85;;;9.82;;
76459;SDS011;65299;46.084;18.762;2024-02-28T10:40:44;21.90;;;9.67;;
76459;SDS011;65299;46.084;18.762;2024-02-28T10:43:46;18.13;;;9.45;;
76459;SDS011;65299;46.084;18.762;2024-02-28T10:46:49;19.65;;;10.02;;
76459;SDS011;65299;46.084;18.762;2024-02-28T10:49:51;18.60;;;9.30;;
76459;SDS011;65299;46.084;18.762;2024-02-28T10:52:56;20.60;;;9.45;;
76459;SDS011;65299;46.084;18.762;2024-02-28T10:56:03;16.20;;;8.77;;
76459;SDS011;65299;46.084;18.762;2024-02-28T10:59:09;16.55;;;9.00;;
76459;SDS011;65299;46.084;18.762;2024-02-28T11:02:16;16.77;;;9.43;;
76459;SDS011;65299;46.084;18.762;2024-02-28T11:05:17;14.88;;;8.93;;
76459;SDS011;65299;46.084;18.762;2024-02-28T11:08:21;20.27;;;8.43;;
76459;SDS011;65299;46.084;18.762;2024-02-28T11:11:23;16.30;;;9.57;;
76459;SDS011;65299;46.084;18.762;2024-02-28T11:14:23;16.58;;;8.90;;
76459;SDS011;65299;46.084;18.762;2024-02-28T11:17:29;19.33;;;11.53;;
76459;SDS011;65299;46.084;18.762;2024-02-28T11:20:35;17.05;;;10.88;;
76459;SDS011;65299;46.084;18.762;2024-02-28T11:23:49;15.82;;;8.65;;
76459;SDS011;65299;46.084;18.762;2024-02-28T11:26:51;14.52;;;8.95;;
76459;SDS011;65299;46.084;18.762;2024-02-28T11:29:53;14.75;;;8.63;;
76459;SDS011;65299;46.084;18.762;2024-02-28T11:32:53;17.13;;;9.20;;
76459;SDS011;65299;46.084;18.762;2024-02-28T11:35:57;16.27;;;7.80;;
76459;SDS011;65299;46.084;18.762;2024-02-28T11:38:58;13.57;;;7.70;;
76459;SDS011;65299;46.084;18.762;2024-02-28T11:42:10;19.13;;;9.07;;
76459;SDS011;65299;46.084;18.762;2024-02-28T11:45:13;18.88;;;8.20;;
76459;SDS011;65299;46.084;18.762;2024-02-28T11:48:14;14.30;;;8.27;;
76459;SDS011;65299;46.084;18.762;2024-02-28T11:51:15;16.15;;;8.40;;
76459;SDS011;65299;46.084;18.762;2024-02-28T11:54:15;17.20;;;7.80;;
76459;SDS011;65299;46.084;18.762;2024-02-28T11:57:16;14.70;;;8.60;;
76459;SDS011;65299;46.084;18.762;2024-02-28T12:00:17;16.75;;;8.30;;
76459;SDS011;65299;46.084;18.762;2024-02-28T12:03:21;14.67;;;7.53;;
76459;SDS011;65299;46.084;18.762;2024-02-28T12:06:23;19.05;;;8.25;;
76459;SDS011;65299;46.084;18.762;2024-02-28T12:09:23;15.57;;;8.13;;
76459;SDS011;65299;46.084;18.762;2024-02-28T12:12:24;18.30;;;8.63;;
76459;SDS011;65299;46.084;18.762;2024-02-28T12:15:24;15.88;;;9.57;;
76459;SDS011;65299;46.084;18.762;2024-02-28T12:18:26;17.53;;;8.67;;
76459;SDS011;65299;46.084;18.762;2024-02-28T12:21:27;21.35;;;9.90;;
76459;SDS011;65299;46.084;18.762;2024-02-28T12:24:28;19.87;;;9.83;;
76459;SDS011;65299;46.084;18.762;2024-02-28T12:27:28;18.40;;;9.60;;
76459;SDS011;65299;46.084;18.762;2024-02-28T12:30:28;23.37;;;9.53;;
76459;SDS011;65299;46.084;18.762;2024-02-28T12:33:29;15.23;;;8.57;;
76459;SDS011;65299;46.084;18.762;2024-02-28T12:36:29;16.83;;;8.57;;
76459;SDS011;65299;46.084;18.762;2024-02-28T12:39:31;12.68;;;8.30;;
76459;SDS011;65299;46.084;18.762;2024-02-28T12:42:34;18.42;;;8.35;;
76459;SDS011;65299;46.084;18.762;2024-02-28T12:45:34;15.00;;;8.07;;
76459;SDS011;65299;46.084;18.762;2024-02-28T12:48:38;17.53;;;8.53;;
76459;SDS011;65299;46.084;18.762;2024-02-28T12:51:39;15.43;;;8.10;;
76459;SDS011;65299;46.084;18.762;2024-02-28T12:54:42;18.13;;;8.35;;
76459;SDS011;65299;46.084;18.762;2024-02-28T12:57:43;15.70;;;7.93;;
76459;SDS011;65299;46.084;18.762;2024-02-28T13:00:44;12.85;;;6.85;;
76459;SDS011;65299;46.084;18.762;2024-02-28T13:03:44;13.70;;;6.80;;
76459;SDS011;65299;46.084;18.762;2024-02-28T13:06:45;14.13;;;6.97;;
76459;SDS011;65299;46.084;18.762;2024-02-28T13:09:45;11.60;;;5.90;;
76459;SDS011;65299;46.084;18.762;2024-02-28T13:12:45;12.00;;;4.80;;
76459;SDS011;65299;46.084;18.762;2024-02-28T13:15:46;12.03;;;5.23;;
76459;SDS011;65299;46.084;18.762;2024-02-28T13:18:46;8.73;;;4.40;;
76459;SDS011;65299;46.084;18.762;2024-02-28T13:21:47;10.48;;;4.72;;
76459;SDS011;65299;46.084;18.762;2024-02-28T13:24:47;15.40;;;6.33;;
76459;SDS011;65299;46.084;18.762;2024-02-28T13:27:47;10.00;;;5.27;;
76459;SDS011;65299;46.084;18.762;2024-02-28T13:30:48;13.27;;;6.17;;
76459;SDS011;65299;46.084;18.762;2024-02-28T13:33:48;10.87;;;5.53;;
76459;SDS011;65299;46.084;18.762;2024-02-28T13:36:49;13.60;;;6.88;;
76459;SDS011;65299;46.084;18.762;2024-02-28T13:39:50;15.03;;;6.00;;
76459;SDS011;65299;46.084;18.762;2024-02-28T13:42:52;13.07;;;6.20;;
76459;SDS011;65299;46.084;18.762;2024-02-28T13:45:53;13.35;;;5.13;;
76459;SDS011;65299;46.084;18.762;2024-02-28T13:48:55;10.32;;;4.57;;
76459;SDS011;65299;46.084;18.762;2024-02-28T13:51:55;14.07;;;5.30;;
76459;SDS011;65299;46.084;18.762;2024-02-28T13:54:56;10.83;;;5.20;;
76459;SDS011;65299;46.084;18.762;2024-02-28T14:01:37;10.80;;;4.38;;
76459;SDS011;65299;46.084;18.762;2024-02-28T14:04:38;7.45;;;4.30;;
76459;SDS011;65299;46.084;18.762;2024-02-28T14:07:38;10.50;;;4.27;;
76459;SDS011;65299;46.084;18.762;2024-02-28T14:10:40;10.20;;;4.53;;
76459;SDS011;65299;46.084;18.762;2024-02-28T14:13:44;9.10;;;4.50;;
76459;SDS011;65299;46.084;18.762;2024-02-28T14:16:44;11.40;;;4.35;;
76459;SDS011;65299;46.084;18.762;2024-02-28T14:19:45;8.63;;;4.10;;
76459;SDS011;65299;46.084;18.762;2024-02-28T14:22:48;9.15;;;4.22;;
76459;SDS011;65299;46.084;18.762;2024-02-28T14:25:48;14.53;;;5.20;;
76459;SDS011;65299;46.084;18.762;2024-02-28T14:28:49;11.07;;;4.30;;
76459;SDS011;65299;46.084;18.762;2024-02-28T14:31:49;14.37;;;5.27;;
76459;SDS011;65299;46.084;18.762;2024-02-28T14:34:49;13.07;;;6.00;;
76459;SDS011;65299;46.084;18.762;2024-02-28T14:37:51;9.60;;;5.03;;
76459;SDS011;65299;46.084;18.762;2024-02-28T14:40:52;15.00;;;5.38;;
76459;SDS011;65299;46.084;18.762;2024-02-28T14:43:52;10.50;;;4.83;;
76459;SDS011;65299;46.084;18.762;2024-02-28T14:46:53;13.43;;;5.43;;
76459;SDS011;65299;46.084;18.762;2024-02-28T14:49:53;11.87;;;5.97;;
76459;SDS011;65299;46.084;18.762;2024-02-28T14:52:54;9.43;;;5.10;;
76459;SDS011;65299;46.084;18.762;2024-02-28T14:55:54;12.90;;;5.10;;
76459;SDS011;65299;46.084;18.762;2024-02-28T14:58:55;12.33;;;6.20;;
76459;SDS011;65299;46.084;18.762;2024-02-28T15:01:55;15.02;;;6.43;;
76459;SDS011;65299;46.084;18.762;2024-02-28T15:04:56;16.98;;;5.82;;
76459;SDS011;65299;46.084;18.762;2024-02-28T15:07:57;13.40;;;5.47;;
76459;SDS011;65299;46.084;18.762;2024-02-28T15:10:57;9.57;;;5.20;;
76459;SDS011;65299;46.084;18.762;2024-02-28T15:13:58;10.75;;;5.47;;
76459;SDS011;65299;46.084;18.762;2024-02-28T15:16:59;13.57;;;5.72;;
76459;SDS011;65299;46.084;18.762;2024-02-28T15:20:00;10.57;;;5.80;;
76459;SDS011;65299;46.084;18.762;2024-02-28T15:23:04;12.45;;;6.00;;
76459;SDS011;65299;46.084;18.762;2024-02-28T15:26:04;29.07;;;12.23;;
76459;SDS011;65299;46.084;18.762;2024-02-28T15:29:04;34.20;;;15.52;;
76459;SDS011;65299;46.084;18.762;2024-02-28T15:32:05;34.97;;;15.73;;
76459;SDS011;65299;46.084;18.762;2024-02-28T15:35:06;26.80;;;12.10;;
76459;SDS011;65299;46.084;18.762;2024-02-28T15:38:08;31.77;;;13.65;;
76459;SDS011;65299;46.084;18.762;2024-02-28T15:41:08;28.63;;;12.40;;
76459;SDS011;65299;46.084;18.762;2024-02-28T15:44:08;40.93;;;18.07;;
76459;SDS011;65299;46.084;18.762;2024-02-28T15:47:09;32.50;;;13.98;;
76459;SDS011;65299;46.084;18.762;2024-02-28T15:50:09;27.07;;;12.37;;
76459;SDS011;65299;46.084;18.762;2024-02-28T15:53:10;25.58;;;10.40;;
76459;SDS011;65299;46.084;18.762;2024-02-28T15:56:11;20.87;;;10.53;;
76459;SDS011;65299;46.084;18.762;2024-02-28T15:59:12;22.92;;;9.95;;
76459;SDS011;65299;46.084;18.762;2024-02-28T16:02:12;21.50;;;10.00;;
76459;SDS011;65299;46.084;18.762;2024-02-28T16:05:13;19.15;;;9.85;;
76459;SDS011;65299;46.084;18.762;2024-02-28T16:08:14;22.17;;;10.03;;
76459;SDS011;65299;46.084;18.762;2024-02-28T16:11:14;23.97;;;10.33;;
76459;SDS011;65299;46.084;18.762;2024-02-28T16:14:15;17.10;;;9.68;;
76459;SDS011;65299;46.084;18.762;2024-02-28T16:17:15;27.73;;;10.20;;
76459;SDS011;65299;46.084;18.762;2024-02-28T16:20:16;22.67;;;12.03;;
76459;SDS011;65299;46.084;18.762;2024-02-28T16:23:17;30.10;;;13.55;;
76459;SDS011;65299;46.084;18.762;2024-02-28T16:26:18;35.13;;;16.07;;
76459;SDS011;65299;46.084;18.762;2024-02-28T16:29:18;38.90;;;16.30;;
76459;SDS011;65299;46.084;18.762;2024-02-28T16:32:19;39.33;;;15.90;;
76459;SDS011;65299;46.084;18.762;2024-02-28T16:35:20;34.55;;;15.43;;
76459;SDS011;65299;46.084;18.762;2024-02-28T16:38:20;33.10;;;15.30;;
76459;SDS011;65299;46.084;18.762;2024-02-28T16:41:21;37.43;;;17.50;;
76459;SDS011;65299;46.084;18.762;2024-02-28T16:44:21;42.58;;;20.85;;
76459;SDS011;65299;46.084;18.762;2024-02-28T16:47:21;42.60;;;18.97;;
76459;SDS011;65299;46.084;18.762;2024-02-28T16:50:23;55.60;;;23.75;;
76459;SDS011;65299;46.084;18.762;2024-02-28T16:53:24;63.63;;;25.37;;
76459;SDS011;65299;46.084;18.762;2024-02-28T16:56:30;78.47;;;29.92;;
76459;SDS011;65299;46.084;18.762;2024-02-28T16:59:30;84.70;;;32.40;;
76459;SDS011;65299;46.084;18.762;2024-02-28T17:02:31;81.43;;;35.47;;
76459;SDS011;65299;46.084;18.762;2024-02-28T17:05:31;80.30;;;37.13;;
76459;SDS011;65299;46.084;18.762;2024-02-28T17:08:33;72.75;;;36.05;;
76459;SDS011;65299;46.084;18.762;2024-02-28T17:11:35;59.42;;;28.92;;
76459;SDS011;65299;46.084;18.762;2024-02-28T17:14:35;53.08;;;27.10;;
76459;SDS011;65299;46.084;18.762;2024-02-28T17:17:36;57.43;;;27.53;;
76459;SDS011;65299;46.084;18.762;2024-02-28T17:20:37;99.47;;;46.27;;
76459;SDS011;65299;46.084;18.762;2024-02-28T17:23:37;65.57;;;31.73;;
76459;SDS011;65299;46.084;18.762;2024-02-28T17:26:38;54.47;;;30.37;;
76459;SDS011;65299;46.084;18.762;2024-02-28T17:29:38;49.70;;;25.70;;
76459;SDS011;65299;46.084;18.762;2024-02-28T17:32:38;30.20;;;17.83;;
76459;SDS011;65299;46.084;18.762;2024-02-28T17:35:39;42.13;;;20.67;;